• Bienvenue sur Pilotes Québec!
  • Bienvenue sur le site de Pilotes Québec, la nouvelle communauté des pilotes et aviateurs du Québec.
  • L'image de cette semaine nous vient de Denis Morissette!  La photo a été prise à Miguasha, en Gaspésie, lors d'un atterrissage par bon vent de travers et fort vent rabattant en finale.
  • Calendrier des activités
  • sujets récents au forum...
  • Les nouvelles en bref...

Connexion


J'ai oublié mon mot de passe
Renvoyer l'e-mail de confirmation
 

Publicité

Vous aimeriez afficher une publicité pour joindre la communauté des pilotes professionnels et privé du Québec?  Cliquez ici pour en savoir plus!

Conditions actuelles

Click for Quebec, Quebec Forecast

METAR - Québec


2015/05/27 01:00
CYQB 270100Z 25007KT 20SM FEW140 FEW240 23/18 A2992 RMK AC2CI1 CI TR SLP132 DENSITY ALT 1100FT

TAF - Québec


2015/05/26 18:45
TAF CYQB 261741Z 2618/2718 23015G25KT P6SM SCT030
TEMPO 2618/2709 BKN030
BECMG 2622/2624 25010KT
FM270900 VRB03KT P6SM FEW040 BKN080 BKN140
FM271100 VRB03KT P6SM BKN040 BKN100
BECMG 2712/2714 22008KT
FM271600 23010G20KT P6SM -SHRA BKN030 OVC080
RMK NXT FCST BY 270000Z